sensor_id;sensor_type;location;lat;lon;timestamp;P1;durP1;ratioP1;P2;durP2;ratioP2
51612;SDS011;37694;51.748;14.326;2023-05-27T00:01:48;11.27;;;5.75;;
51612;SDS011;37694;51.748;14.326;2023-05-27T00:04:14;11.65;;;4.93;;
51612;SDS011;37694;51.748;14.326;2023-05-27T00:06:40;9.13;;;4.93;;
51612;SDS011;37694;51.748;14.326;2023-05-27T00:09:05;9.13;;;5.13;;
51612;SDS011;37694;51.748;14.326;2023-05-27T00:11:31;7.55;;;4.72;;
51612;SDS011;37694;51.748;14.326;2023-05-27T00:13:57;9.23;;;5.13;;
51612;SDS011;37694;51.748;14.326;2023-05-27T00:16:23;7.97;;;4.47;;
51612;SDS011;37694;51.748;14.326;2023-05-27T00:18:49;7.78;;;5.03;;
51612;SDS011;37694;51.748;14.326;2023-05-27T00:21:15;8.43;;;4.72;;
51612;SDS011;37694;51.748;14.326;2023-05-27T00:23:45;10.57;;;4.93;;
51612;SDS011;37694;51.748;14.326;2023-05-27T00:26:11;10.38;;;5.18;;
51612;SDS011;37694;51.748;14.326;2023-05-27T00:28:37;9.32;;;5.22;;
51612;SDS011;37694;51.748;14.326;2023-05-27T00:31:03;8.70;;;5.07;;
51612;SDS011;37694;51.748;14.326;2023-05-27T00:33:28;10.45;;;5.22;;
51612;SDS011;37694;51.748;14.326;2023-05-27T00:35:54;7.55;;;4.55;;
51612;SDS011;37694;51.748;14.326;2023-05-27T00:38:20;7.55;;;5.30;;
51612;SDS011;37694;51.748;14.326;2023-05-27T00:40:46;8.60;;;4.70;;
51612;SDS011;37694;51.748;14.326;2023-05-27T00:43:14;11.05;;;5.30;;
51612;SDS011;37694;51.748;14.326;2023-05-27T00:45:40;9.40;;;5.05;;
51612;SDS011;37694;51.748;14.326;2023-05-27T00:48:06;9.57;;;4.95;;
51612;SDS011;37694;51.748;14.326;2023-05-27T00:50:31;11.20;;;4.97;;
51612;SDS011;37694;51.748;14.326;2023-05-27T00:52:57;8.63;;;4.82;;
51612;SDS011;37694;51.748;14.326;2023-05-27T00:55:24;8.40;;;5.15;;
51612;SDS011;37694;51.748;14.326;2023-05-27T00:57:50;9.45;;;5.07;;
51612;SDS011;37694;51.748;14.326;2023-05-27T01:00:18;8.48;;;4.90;;
51612;SDS011;37694;51.748;14.326;2023-05-27T01:02:44;11.95;;;5.57;;
51612;SDS011;37694;51.748;14.326;2023-05-27T01:05:11;8.35;;;4.57;;
51612;SDS011;37694;51.748;14.326;2023-05-27T01:10:06;7.70;;;5.43;;
51612;SDS011;37694;51.748;14.326;2023-05-27T01:15:20;7.85;;;4.40;;
51612;SDS011;37694;51.748;14.326;2023-05-27T01:17:47;12.07;;;5.72;;
51612;SDS011;37694;51.748;14.326;2023-05-27T01:20:14;8.35;;;4.75;;
51612;SDS011;37694;51.748;14.326;2023-05-27T01:22:41;7.45;;;4.68;;
51612;SDS011;37694;51.748;14.326;2023-05-27T01:25:08;12.02;;;5.07;;
51612;SDS011;37694;51.748;14.326;2023-05-27T01:27:34;10.15;;;4.70;;
51612;SDS011;37694;51.748;14.326;2023-05-27T01:30:01;9.27;;;5.90;;
51612;SDS011;37694;51.748;14.326;2023-05-27T01:32:30;9.63;;;4.07;;
51612;SDS011;37694;51.748;14.326;2023-05-27T01:35:09;7.43;;;5.13;;
51612;SDS011;37694;51.748;14.326;2023-05-27T01:37:46;9.45;;;5.53;;
51612;SDS011;37694;51.748;14.326;2023-05-27T01:40:13;7.20;;;4.30;;
51612;SDS011;37694;51.748;14.326;2023-05-27T01:42:40;12.02;;;5.10;;
51612;SDS011;37694;51.748;14.326;2023-05-27T01:45:07;6.97;;;4.20;;
51612;SDS011;37694;51.748;14.326;2023-05-27T01:47:33;7.50;;;4.90;;
51612;SDS011;37694;51.748;14.326;2023-05-27T01:49:59;10.35;;;4.97;;
51612;SDS011;37694;51.748;14.326;2023-05-27T01:52:25;13.25;;;5.25;;
51612;SDS011;37694;51.748;14.326;2023-05-27T01:54:51;6.25;;;4.25;;
51612;SDS011;37694;51.748;14.326;2023-05-27T01:57:17;5.40;;;4.20;;
51612;SDS011;37694;51.748;14.326;2023-05-27T01:59:43;8.07;;;4.40;;
51612;SDS011;37694;51.748;14.326;2023-05-27T02:02:09;8.77;;;4.53;;
51612;SDS011;37694;51.748;14.326;2023-05-27T02:04:35;7.38;;;4.63;;
51612;SDS011;37694;51.748;14.326;2023-05-27T02:07:01;7.57;;;4.80;;
51612;SDS011;37694;51.748;14.326;2023-05-27T02:09:26;7.22;;;4.38;;
51612;SDS011;37694;51.748;14.326;2023-05-27T02:11:52;7.47;;;4.55;;
51612;SDS011;37694;51.748;14.326;2023-05-27T02:14:18;10.55;;;4.95;;
51612;SDS011;37694;51.748;14.326;2023-05-27T02:16:43;6.13;;;3.47;;
51612;SDS011;37694;51.748;14.326;2023-05-27T02:19:09;6.68;;;4.05;;
51612;SDS011;37694;51.748;14.326;2023-05-27T02:21:35;6.88;;;5.10;;
51612;SDS011;37694;51.748;14.326;2023-05-27T02:24:01;5.50;;;3.92;;
51612;SDS011;37694;51.748;14.326;2023-05-27T02:26:27;6.85;;;4.40;;
51612;SDS011;37694;51.748;14.326;2023-05-27T02:28:53;6.97;;;4.30;;
51612;SDS011;37694;51.748;14.326;2023-05-27T02:31:19;5.43;;;4.10;;
51612;SDS011;37694;51.748;14.326;2023-05-27T02:33:46;10.82;;;4.35;;
51612;SDS011;37694;51.748;14.326;2023-05-27T02:36:12;8.20;;;4.55;;
51612;SDS011;37694;51.748;14.326;2023-05-27T02:38:38;5.63;;;4.22;;
51612;SDS011;37694;51.748;14.326;2023-05-27T02:41:04;9.75;;;5.07;;
51612;SDS011;37694;51.748;14.326;2023-05-27T02:43:30;7.15;;;4.15;;
51612;SDS011;37694;51.748;14.326;2023-05-27T02:45:56;6.15;;;4.55;;
51612;SDS011;37694;51.748;14.326;2023-05-27T02:48:21;11.13;;;5.40;;
51612;SDS011;37694;51.748;14.326;2023-05-27T02:50:47;6.65;;;4.18;;
51612;SDS011;37694;51.748;14.326;2023-05-27T02:53:13;6.53;;;4.18;;
51612;SDS011;37694;51.748;14.326;2023-05-27T02:55:39;9.73;;;5.05;;
51612;SDS011;37694;51.748;14.326;2023-05-27T02:58:05;5.53;;;4.20;;
51612;SDS011;37694;51.748;14.326;2023-05-27T03:00:32;7.70;;;4.22;;
51612;SDS011;37694;51.748;14.326;2023-05-27T03:02:58;5.10;;;4.22;;
51612;SDS011;37694;51.748;14.326;2023-05-27T03:05:23;8.80;;;4.63;;
51612;SDS011;37694;51.748;14.326;2023-05-27T03:07:49;7.28;;;4.80;;
51612;SDS011;37694;51.748;14.326;2023-05-27T03:10:15;6.97;;;4.32;;
51612;SDS011;37694;51.748;14.326;2023-05-27T03:12:41;6.57;;;4.25;;
51612;SDS011;37694;51.748;14.326;2023-05-27T03:15:06;10.80;;;4.78;;
51612;SDS011;37694;51.748;14.326;2023-05-27T03:17:36;9.68;;;4.80;;
51612;SDS011;37694;51.748;14.326;2023-05-27T03:20:02;6.53;;;4.57;;
51612;SDS011;37694;51.748;14.326;2023-05-27T03:22:29;7.78;;;3.85;;
51612;SDS011;37694;51.748;14.326;2023-05-27T03:24:55;6.40;;;4.28;;
51612;SDS011;37694;51.748;14.326;2023-05-27T03:27:21;7.97;;;4.45;;
51612;SDS011;37694;51.748;14.326;2023-05-27T03:29:46;6.45;;;4.10;;
51612;SDS011;37694;51.748;14.326;2023-05-27T03:32:12;6.85;;;4.07;;
51612;SDS011;37694;51.748;14.326;2023-05-27T03:34:38;7.80;;;4.20;;
51612;SDS011;37694;51.748;14.326;2023-05-27T03:37:03;7.15;;;4.43;;
51612;SDS011;37694;51.748;14.326;2023-05-27T03:39:29;6.50;;;4.22;;
51612;SDS011;37694;51.748;14.326;2023-05-27T03:41:55;5.60;;;4.03;;
51612;SDS011;37694;51.748;14.326;2023-05-27T03:44:21;6.85;;;4.13;;
51612;SDS011;37694;51.748;14.326;2023-05-27T03:46:47;5.38;;;4.10;;
51612;SDS011;37694;51.748;14.326;2023-05-27T03:49:12;6.60;;;3.88;;
51612;SDS011;37694;51.748;14.326;2023-05-27T03:51:38;7.80;;;4.90;;
51612;SDS011;37694;51.748;14.326;2023-05-27T03:54:04;6.18;;;4.40;;
51612;SDS011;37694;51.748;14.326;2023-05-27T03:56:29;7.85;;;3.95;;
51612;SDS011;37694;51.748;14.326;2023-05-27T03:58:55;7.15;;;4.25;;
51612;SDS011;37694;51.748;14.326;2023-05-27T04:01:21;5.65;;;4.10;;
51612;SDS011;37694;51.748;14.326;2023-05-27T04:03:48;6.57;;;4.22;;
51612;SDS011;37694;51.748;14.326;2023-05-27T04:06:15;9.55;;;4.30;;
51612;SDS011;37694;51.748;14.326;2023-05-27T04:08:40;6.22;;;3.65;;
51612;SDS011;37694;51.748;14.326;2023-05-27T04:11:10;8.18;;;4.63;;
51612;SDS011;37694;51.748;14.326;2023-05-27T04:16:06;5.32;;;3.80;;
51612;SDS011;37694;51.748;14.326;2023-05-27T04:18:32;7.07;;;4.28;;
51612;SDS011;37694;51.748;14.326;2023-05-27T04:20:58;5.43;;;4.03;;
51612;SDS011;37694;51.748;14.326;2023-05-27T04:23:25;5.53;;;4.18;;
51612;SDS011;37694;51.748;14.326;2023-05-27T04:25:50;5.90;;;4.35;;
51612;SDS011;37694;51.748;14.326;2023-05-27T04:28:17;5.93;;;4.03;;
51612;SDS011;37694;51.748;14.326;2023-05-27T04:30:43;5.55;;;3.72;;
51612;SDS011;37694;51.748;14.326;2023-05-27T04:33:14;5.60;;;3.95;;
51612;SDS011;37694;51.748;14.326;2023-05-27T04:35:40;6.78;;;3.80;;
51612;SDS011;37694;51.748;14.326;2023-05-27T04:38:10;7.68;;;4.18;;
51612;SDS011;37694;51.748;14.326;2023-05-27T04:40:41;6.88;;;3.35;;
51612;SDS011;37694;51.748;14.326;2023-05-27T04:43:10;6.57;;;3.72;;
51612;SDS011;37694;51.748;14.326;2023-05-27T04:45:37;6.53;;;4.10;;
51612;SDS011;37694;51.748;14.326;2023-05-27T04:48:03;7.22;;;4.05;;
51612;SDS011;37694;51.748;14.326;2023-05-27T04:50:28;4.70;;;3.70;;
51612;SDS011;37694;51.748;14.326;2023-05-27T04:52:54;5.15;;;3.75;;
51612;SDS011;37694;51.748;14.326;2023-05-27T04:55:20;5.43;;;3.80;;
51612;SDS011;37694;51.748;14.326;2023-05-27T04:57:46;6.57;;;4.28;;
51612;SDS011;37694;51.748;14.326;2023-05-27T05:00:12;7.78;;;3.83;;
51612;SDS011;37694;51.748;14.326;2023-05-27T05:02:38;6.70;;;4.20;;
51612;SDS011;37694;51.748;14.326;2023-05-27T05:05:05;5.63;;;3.97;;
51612;SDS011;37694;51.748;14.326;2023-05-27T05:07:33;5.75;;;3.90;;
51612;SDS011;37694;51.748;14.326;2023-05-27T05:10:03;5.95;;;4.18;;
51612;SDS011;37694;51.748;14.326;2023-05-27T05:12:30;5.35;;;3.70;;
51612;SDS011;37694;51.748;14.326;2023-05-27T05:14:57;5.72;;;3.47;;
51612;SDS011;37694;51.748;14.326;2023-05-27T05:17:23;7.50;;;3.95;;
51612;SDS011;37694;51.748;14.326;2023-05-27T05:19:50;5.20;;;3.55;;
51612;SDS011;37694;51.748;14.326;2023-05-27T05:22:16;6.60;;;3.88;;
51612;SDS011;37694;51.748;14.326;2023-05-27T05:24:48;11.80;;;3.58;;
51612;SDS011;37694;51.748;14.326;2023-05-27T05:27:14;13.65;;;3.80;;
51612;SDS011;37694;51.748;14.326;2023-05-27T05:29:40;5.72;;;3.53;;
51612;SDS011;37694;51.748;14.326;2023-05-27T05:32:06;5.45;;;3.58;;
51612;SDS011;37694;51.748;14.326;2023-05-27T05:34:38;6.65;;;4.15;;
51612;SDS011;37694;51.748;14.326;2023-05-27T05:37:04;12.52;;;3.85;;
51612;SDS011;37694;51.748;14.326;2023-05-27T05:39:30;7.97;;;3.63;;
51612;SDS011;37694;51.748;14.326;2023-05-27T05:41:56;8.93;;;3.50;;
51612;SDS011;37694;51.748;14.326;2023-05-27T05:44:22;12.95;;;4.38;;
51612;SDS011;37694;51.748;14.326;2023-05-27T05:46:49;6.40;;;3.50;;
51612;SDS011;37694;51.748;14.326;2023-05-27T05:49:15;5.70;;;3.88;;
51612;SDS011;37694;51.748;14.326;2023-05-27T05:51:41;5.20;;;3.47;;
51612;SDS011;37694;51.748;14.326;2023-05-27T05:54:06;4.38;;;3.40;;
51612;SDS011;37694;51.748;14.326;2023-05-27T05:56:32;10.65;;;3.90;;
51612;SDS011;37694;51.748;14.326;2023-05-27T05:58:58;10.93;;;3.33;;
51612;SDS011;37694;51.748;14.326;2023-05-27T06:01:24;7.80;;;4.22;;
51612;SDS011;37694;51.748;14.326;2023-05-27T06:03:52;8.30;;;3.80;;
51612;SDS011;37694;51.748;14.326;2023-05-27T06:06:18;5.05;;;3.22;;
51612;SDS011;37694;51.748;14.326;2023-05-27T06:08:44;6.68;;;3.55;;
51612;SDS011;37694;51.748;14.326;2023-05-27T06:11:10;7.18;;;3.95;;
51612;SDS011;37694;51.748;14.326;2023-05-27T06:13:36;11.98;;;3.75;;
51612;SDS011;37694;51.748;14.326;2023-05-27T06:16:02;11.57;;;3.92;;
51612;SDS011;37694;51.748;14.326;2023-05-27T06:18:28;8.43;;;3.78;;
51612;SDS011;37694;51.748;14.326;2023-05-27T06:20:54;16.25;;;4.15;;
51612;SDS011;37694;51.748;14.326;2023-05-27T06:23:19;6.55;;;3.70;;
51612;SDS011;37694;51.748;14.326;2023-05-27T06:25:45;13.35;;;3.40;;
51612;SDS011;37694;51.748;14.326;2023-05-27T06:28:10;6.00;;;3.30;;
51612;SDS011;37694;51.748;14.326;2023-05-27T06:30:36;10.00;;;3.90;;
51612;SDS011;37694;51.748;14.326;2023-05-27T06:33:03;10.93;;;4.10;;
51612;SDS011;37694;51.748;14.326;2023-05-27T06:35:28;6.95;;;3.30;;
51612;SDS011;37694;51.748;14.326;2023-05-27T06:37:54;5.72;;;3.65;;
51612;SDS011;37694;51.748;14.326;2023-05-27T06:40:20;5.80;;;3.90;;
51612;SDS011;37694;51.748;14.326;2023-05-27T06:42:46;7.70;;;4.00;;
51612;SDS011;37694;51.748;14.326;2023-05-27T06:45:11;7.05;;;3.75;;
51612;SDS011;37694;51.748;14.326;2023-05-27T06:47:37;8.80;;;3.72;;
51612;SDS011;37694;51.748;14.326;2023-05-27T06:50:04;10.55;;;3.95;;
51612;SDS011;37694;51.748;14.326;2023-05-27T06:52:30;8.52;;;3.83;;
51612;SDS011;37694;51.748;14.326;2023-05-27T06:54:56;5.20;;;3.70;;
51612;SDS011;37694;51.748;14.326;2023-05-27T06:57:22;7.97;;;3.80;;
51612;SDS011;37694;51.748;14.326;2023-05-27T06:59:47;7.85;;;3.63;;
51612;SDS011;37694;51.748;14.326;2023-05-27T07:02:13;8.70;;;3.85;;
51612;SDS011;37694;51.748;14.326;2023-05-27T07:04:39;8.90;;;4.30;;
51612;SDS011;37694;51.748;14.326;2023-05-27T07:07:05;6.32;;;3.67;;
51612;SDS011;37694;51.748;14.326;2023-05-27T07:09:30;8.90;;;3.83;;
51612;SDS011;37694;51.748;14.326;2023-05-27T07:11:56;8.25;;;4.03;;
51612;SDS011;37694;51.748;14.326;2023-05-27T07:14:22;6.10;;;4.10;;
51612;SDS011;37694;51.748;14.326;2023-05-27T07:16:48;6.10;;;3.58;;
51612;SDS011;37694;51.748;14.326;2023-05-27T07:19:13;7.38;;;3.97;;
51612;SDS011;37694;51.748;14.326;2023-05-27T07:21:39;5.85;;;3.67;;
51612;SDS011;37694;51.748;14.326;2023-05-27T07:24:05;6.40;;;3.78;;
51612;SDS011;37694;51.748;14.326;2023-05-27T07:26:31;8.38;;;3.83;;
51612;SDS011;37694;51.748;14.326;2023-05-27T07:28:57;9.27;;;4.15;;
51612;SDS011;37694;51.748;14.326;2023-05-27T07:31:25;11.70;;;3.35;;
51612;SDS011;37694;51.748;14.326;2023-05-27T07:33:51;9.27;;;3.78;;
51612;SDS011;37694;51.748;14.326;2023-05-27T07:36:17;7.90;;;4.00;;
51612;SDS011;37694;51.748;14.326;2023-05-27T07:38:43;6.68;;;3.75;;
51612;SDS011;37694;51.748;14.326;2023-05-27T07:41:09;10.18;;;3.80;;
51612;SDS011;37694;51.748;14.326;2023-05-27T07:43:35;8.05;;;3.88;;
51612;SDS011;37694;51.748;14.326;2023-05-27T07:46:01;14.73;;;3.45;;
51612;SDS011;37694;51.748;14.326;2023-05-27T07:48:27;17.88;;;4.00;;
51612;SDS011;37694;51.748;14.326;2023-05-27T07:50:53;7.05;;;3.97;;
51612;SDS011;37694;51.748;14.326;2023-05-27T07:53:20;6.15;;;3.38;;
51612;SDS011;37694;51.748;14.326;2023-05-27T07:55:45;12.18;;;4.00;;
51612;SDS011;37694;51.748;14.326;2023-05-27T07:58:11;15.25;;;4.05;;
51612;SDS011;37694;51.748;14.326;2023-05-27T08:00:37;7.32;;;3.70;;
51612;SDS011;37694;51.748;14.326;2023-05-27T08:03:02;12.40;;;3.83;;
51612;SDS011;37694;51.748;14.326;2023-05-27T08:05:28;14.13;;;3.70;;
51612;SDS011;37694;51.748;14.326;2023-05-27T08:07:54;11.63;;;4.03;;
51612;SDS011;37694;51.748;14.326;2023-05-27T08:10:20;24.63;;;5.55;;
51612;SDS011;37694;51.748;14.326;2023-05-27T08:12:45;8.35;;;4.53;;
51612;SDS011;37694;51.748;14.326;2023-05-27T08:15:11;14.05;;;3.40;;
51612;SDS011;37694;51.748;14.326;2023-05-27T08:17:37;14.55;;;4.05;;
51612;SDS011;37694;51.748;14.326;2023-05-27T08:20:02;11.65;;;3.85;;
51612;SDS011;37694;51.748;14.326;2023-05-27T08:22:29;13.65;;;4.40;;
51612;SDS011;37694;51.748;14.326;2023-05-27T08:24:54;15.50;;;4.45;;
51612;SDS011;37694;51.748;14.326;2023-05-27T08:27:20;11.77;;;3.65;;
51612;SDS011;37694;51.748;14.326;2023-05-27T08:30:06;10.60;;;3.58;;
51612;SDS011;37694;51.748;14.326;2023-05-27T08:32:33;13.52;;;3.78;;
51612;SDS011;37694;51.748;14.326;2023-05-27T08:34:58;12.20;;;3.45;;
51612;SDS011;37694;51.748;14.326;2023-05-27T08:37:24;15.38;;;4.30;;
51612;SDS011;37694;51.748;14.326;2023-05-27T08:39:50;11.70;;;3.80;;
51612;SDS011;37694;51.748;14.326;2023-05-27T08:42:16;22.52;;;5.32;;
51612;SDS011;37694;51.748;14.326;2023-05-27T08:44:42;21.60;;;4.53;;
51612;SDS011;37694;51.748;14.326;2023-05-27T08:47:08;15.10;;;4.07;;
51612;SDS011;37694;51.748;14.326;2023-05-27T08:49:33;14.50;;;4.90;;
51612;SDS011;37694;51.748;14.326;2023-05-27T08:51:59;16.95;;;4.40;;
51612;SDS011;37694;51.748;14.326;2023-05-27T08:54:27;13.27;;;3.85;;
51612;SDS011;37694;51.748;14.326;2023-05-27T08:56:55;13.15;;;4.72;;
51612;SDS011;37694;51.748;14.326;2023-05-27T08:59:24;17.30;;;4.85;;
51612;SDS011;37694;51.748;14.326;2023-05-27T09:01:51;12.55;;;4.07;;
51612;SDS011;37694;51.748;14.326;2023-05-27T09:04:17;23.30;;;4.28;;
51612;SDS011;37694;51.748;14.326;2023-05-27T09:06:42;22.10;;;3.63;;
51612;SDS011;37694;51.748;14.326;2023-05-27T09:09:08;10.77;;;3.28;;
51612;SDS011;37694;51.748;14.326;2023-05-27T09:11:37;16.38;;;4.13;;
51612;SDS011;37694;51.748;14.326;2023-05-27T09:14:07;9.00;;;3.70;;
51612;SDS011;37694;51.748;14.326;2023-05-27T09:16:33;13.85;;;3.65;;
51612;SDS011;37694;51.748;14.326;2023-05-27T09:18:59;23.73;;;4.30;;
51612;SDS011;37694;51.748;14.326;2023-05-27T09:21:24;9.68;;;4.35;;
51612;SDS011;37694;51.748;14.326;2023-05-27T09:23:54;11.43;;;4.40;;
51612;SDS011;37694;51.748;14.326;2023-05-27T09:26:22;15.35;;;4.53;;
51612;SDS011;37694;51.748;14.326;2023-05-27T09:28:48;9.05;;;4.38;;
51612;SDS011;37694;51.748;14.326;2023-05-27T09:31:14;14.63;;;3.85;;
51612;SDS011;37694;51.748;14.326;2023-05-27T09:33:40;12.35;;;4.15;;
51612;SDS011;37694;51.748;14.326;2023-05-27T09:36:06;6.97;;;3.38;;
51612;SDS011;37694;51.748;14.326;2023-05-27T09:38:34;7.78;;;3.47;;
51612;SDS011;37694;51.748;14.326;2023-05-27T09:41:01;10.43;;;3.53;;
51612;SDS011;37694;51.748;14.326;2023-05-27T09:43:28;14.93;;;3.83;;
51612;SDS011;37694;51.748;14.326;2023-05-27T09:45:58;12.95;;;3.72;;
51612;SDS011;37694;51.748;14.326;2023-05-27T09:48:29;9.38;;;3.80;;
51612;SDS011;37694;51.748;14.326;2023-05-27T09:51:01;11.98;;;3.40;;
51612;SDS011;37694;51.748;14.326;2023-05-27T09:53:28;10.63;;;3.22;;
51612;SDS011;37694;51.748;14.326;2023-05-27T09:55:56;12.35;;;4.13;;
51612;SDS011;37694;51.748;14.326;2023-05-27T09:58:22;9.50;;;3.78;;
51612;SDS011;37694;51.748;14.326;2023-05-27T10:00:49;9.77;;;3.28;;
51612;SDS011;37694;51.748;14.326;2023-05-27T10:03:16;11.07;;;3.97;;
51612;SDS011;37694;51.748;14.326;2023-05-27T10:05:45;12.07;;;3.53;;
51612;SDS011;37694;51.748;14.326;2023-05-27T10:08:13;9.35;;;3.20;;
51612;SDS011;37694;51.748;14.326;2023-05-27T10:10:39;12.70;;;3.92;;
51612;SDS011;37694;51.748;14.326;2023-05-27T10:13:05;17.55;;;3.95;;
51612;SDS011;37694;51.748;14.326;2023-05-27T10:15:32;19.23;;;3.58;;
51612;SDS011;37694;51.748;14.326;2023-05-27T10:17:59;13.02;;;3.65;;
51612;SDS011;37694;51.748;14.326;2023-05-27T10:20:27;12.27;;;3.65;;
51612;SDS011;37694;51.748;14.326;2023-05-27T10:22:54;11.23;;;2.90;;
51612;SDS011;37694;51.748;14.326;2023-05-27T10:25:21;8.45;;;3.00;;
51612;SDS011;37694;51.748;14.326;2023-05-27T10:27:48;9.25;;;3.75;;
51612;SDS011;37694;51.748;14.326;2023-05-27T10:30:14;12.77;;;3.60;;
51612;SDS011;37694;51.748;14.326;2023-05-27T10:32:44;16.77;;;4.18;;
51612;SDS011;37694;51.748;14.326;2023-05-27T10:35:13;28.50;;;7.10;;
51612;SDS011;37694;51.748;14.326;2023-05-27T10:37:41;17.70;;;5.68;;
51612;SDS011;37694;51.748;14.326;2023-05-27T10:40:07;14.00;;;4.43;;
51612;SDS011;37694;51.748;14.326;2023-05-27T10:42:34;14.38;;;4.70;;
51612;SDS011;37694;51.748;14.326;2023-05-27T10:45:08;13.65;;;4.72;;
51612;SDS011;37694;51.748;14.326;2023-05-27T10:47:36;18.88;;;4.80;;
51612;SDS011;37694;51.748;14.326;2023-05-27T10:50:12;13.25;;;4.68;;
51612;SDS011;37694;51.748;14.326;2023-05-27T10:52:39;14.68;;;3.78;;
51612;SDS011;37694;51.748;14.326;2023-05-27T10:55:06;14.40;;;4.35;;
51612;SDS011;37694;51.748;14.326;2023-05-27T10:57:32;17.17;;;3.97;;
51612;SDS011;37694;51.748;14.326;2023-05-27T11:00:00;17.42;;;4.28;;
51612;SDS011;37694;51.748;14.326;2023-05-27T11:02:31;10.45;;;3.25;;
51612;SDS011;37694;51.748;14.326;2023-05-27T11:04:59;18.95;;;4.07;;
51612;SDS011;37694;51.748;14.326;2023-05-27T11:07:25;13.52;;;3.10;;
51612;SDS011;37694;51.748;14.326;2023-05-27T11:09:54;10.82;;;3.30;;
51612;SDS011;37694;51.748;14.326;2023-05-27T11:12:21;16.63;;;3.92;;
51612;SDS011;37694;51.748;14.326;2023-05-27T11:17:14;10.45;;;3.45;;
51612;SDS011;37694;51.748;14.326;2023-05-27T11:19:40;18.05;;;4.00;;
51612;SDS011;37694;51.748;14.326;2023-05-27T11:22:07;17.17;;;3.65;;
51612;SDS011;37694;51.748;14.326;2023-05-27T11:24:33;11.88;;;3.35;;
51612;SDS011;37694;51.748;14.326;2023-05-27T11:27:01;18.23;;;4.25;;
51612;SDS011;37694;51.748;14.326;2023-05-27T11:29:36;10.23;;;3.10;;
51612;SDS011;37694;51.748;14.326;2023-05-27T11:32:03;23.73;;;4.00;;
51612;SDS011;37694;51.748;14.326;2023-05-27T11:34:30;16.73;;;2.90;;
51612;SDS011;37694;51.748;14.326;2023-05-27T11:37:01;13.70;;;3.47;;
51612;SDS011;37694;51.748;14.326;2023-05-27T11:39:30;22.90;;;3.72;;
51612;SDS011;37694;51.748;14.326;2023-05-27T11:41:56;18.58;;;3.80;;
51612;SDS011;37694;51.748;14.326;2023-05-27T11:44:22;17.48;;;4.25;;
51612;SDS011;37694;51.748;14.326;2023-05-27T11:46:50;36.88;;;4.88;;
51612;SDS011;37694;51.748;14.326;2023-05-27T11:49:18;24.08;;;4.45;;
51612;SDS011;37694;51.748;14.326;2023-05-27T11:51:48;35.30;;;5.43;;
51612;SDS011;37694;51.748;14.326;2023-05-27T11:54:30;35.80;;;4.68;;
51612;SDS011;37694;51.748;14.326;2023-05-27T11:56:56;33.80;;;5.00;;
51612;SDS011;37694;51.748;14.326;2023-05-27T11:59:24;23.92;;;4.25;;
51612;SDS011;37694;51.748;14.326;2023-05-27T12:01:51;30.35;;;5.47;;
51612;SDS011;37694;51.748;14.326;2023-05-27T12:04:19;34.92;;;5.03;;
51612;SDS011;37694;51.748;14.326;2023-05-27T12:06:45;23.33;;;4.47;;
51612;SDS011;37694;51.748;14.326;2023-05-27T12:09:11;18.08;;;4.18;;
51612;SDS011;37694;51.748;14.326;2023-05-27T12:11:37;30.98;;;4.32;;
51612;SDS011;37694;51.748;14.326;2023-05-27T12:14:03;21.45;;;4.63;;
51612;SDS011;37694;51.748;14.326;2023-05-27T12:16:30;26.70;;;4.47;;
51612;SDS011;37694;51.748;14.326;2023-05-27T12:18:57;31.05;;;4.55;;
51612;SDS011;37694;51.748;14.326;2023-05-27T12:21:23;10.30;;;3.83;;
51612;SDS011;37694;51.748;14.326;2023-05-27T12:23:49;18.90;;;4.50;;
51612;SDS011;37694;51.748;14.326;2023-05-27T12:26:15;15.30;;;3.55;;
51612;SDS011;37694;51.748;14.326;2023-05-27T12:28:42;14.77;;;3.90;;
51612;SDS011;37694;51.748;14.326;2023-05-27T12:31:08;14.30;;;4.00;;
51612;SDS011;37694;51.748;14.326;2023-05-27T12:33:34;18.38;;;4.35;;
51612;SDS011;37694;51.748;14.326;2023-05-27T12:36:00;21.92;;;4.40;;
51612;SDS011;37694;51.748;14.326;2023-05-27T12:38:27;17.13;;;4.13;;
51612;SDS011;37694;51.748;14.326;2023-05-27T12:40:53;17.45;;;3.47;;
51612;SDS011;37694;51.748;14.326;2023-05-27T12:43:20;13.55;;;3.97;;
51612;SDS011;37694;51.748;14.326;2023-05-27T12:45:46;11.55;;;3.85;;
51612;SDS011;37694;51.748;14.326;2023-05-27T12:48:12;13.55;;;3.20;;
51612;SDS011;37694;51.748;14.326;2023-05-27T12:50:38;12.63;;;4.00;;
51612;SDS011;37694;51.748;14.326;2023-05-27T12:53:04;20.90;;;4.30;;
51612;SDS011;37694;51.748;14.326;2023-05-27T12:55:30;10.15;;;4.03;;
51612;SDS011;37694;51.748;14.326;2023-05-27T12:57:56;10.40;;;3.78;;
51612;SDS011;37694;51.748;14.326;2023-05-27T13:00:22;10.27;;;3.35;;
51612;SDS011;37694;51.748;14.326;2023-05-27T13:02:48;11.95;;;3.65;;
51612;SDS011;37694;51.748;14.326;2023-05-27T13:05:14;12.82;;;4.00;;
51612;SDS011;37694;51.748;14.326;2023-05-27T13:07:41;11.98;;;3.50;;
51612;SDS011;37694;51.748;14.326;2023-05-27T13:10:22;7.95;;;3.13;;
51612;SDS011;37694;51.748;14.326;2023-05-27T13:12:49;15.43;;;3.22;;
51612;SDS011;37694;51.748;14.326;2023-05-27T13:15:15;8.63;;;3.97;;
51612;SDS011;37694;51.748;14.326;2023-05-27T13:17:42;10.52;;;3.55;;
51612;SDS011;37694;51.748;14.326;2023-05-27T13:20:08;6.63;;;3.08;;
51612;SDS011;37694;51.748;14.326;2023-05-27T13:22:34;8.95;;;3.65;;
51612;SDS011;37694;51.748;14.326;2023-05-27T13:25:00;9.27;;;3.50;;
51612;SDS011;37694;51.748;14.326;2023-05-27T13:27:26;8.20;;;3.65;;
51612;SDS011;37694;51.748;14.326;2023-05-27T13:29:52;8.00;;;3.20;;
51612;SDS011;37694;51.748;14.326;2023-05-27T13:32:17;12.63;;;3.25;;
51612;SDS011;37694;51.748;14.326;2023-05-27T13:34:43;7.43;;;3.05;;
51612;SDS011;37694;51.748;14.326;2023-05-27T13:37:09;13.10;;;3.13;;
51612;SDS011;37694;51.748;14.326;2023-05-27T13:39:34;11.38;;;3.03;;
51612;SDS011;37694;51.748;14.326;2023-05-27T13:42:00;7.05;;;3.22;;
51612;SDS011;37694;51.748;14.326;2023-05-27T13:44:26;12.10;;;3.72;;
51612;SDS011;37694;51.748;14.326;2023-05-27T13:46:51;6.70;;;2.88;;
51612;SDS011;37694;51.748;14.326;2023-05-27T13:49:17;8.55;;;2.80;;
51612;SDS011;37694;51.748;14.326;2023-05-27T13:51:43;10.48;;;3.30;;
51612;SDS011;37694;51.748;14.326;2023-05-27T13:54:09;5.82;;;2.97;;
51612;SDS011;37694;51.748;14.326;2023-05-27T13:56:35;5.80;;;3.13;;
51612;SDS011;37694;51.748;14.326;2023-05-27T13:59:01;5.55;;;2.58;;
51612;SDS011;37694;51.748;14.326;2023-05-27T14:01:28;8.77;;;3.55;;
51612;SDS011;37694;51.748;14.326;2023-05-27T14:03:54;3.97;;;2.45;;
51612;SDS011;37694;51.748;14.326;2023-05-27T14:06:20;15.32;;;3.45;;
51612;SDS011;37694;51.748;14.326;2023-05-27T14:08:46;5.28;;;2.78;;
51612;SDS011;37694;51.748;14.326;2023-05-27T14:11:12;5.43;;;2.85;;
51612;SDS011;37694;51.748;14.326;2023-05-27T14:13:37;8.18;;;2.90;;
51612;SDS011;37694;51.748;14.326;2023-05-27T14:16:03;7.88;;;3.13;;
51612;SDS011;37694;51.748;14.326;2023-05-27T14:18:29;6.38;;;3.33;;
51612;SDS011;37694;51.748;14.326;2023-05-27T14:20:55;5.50;;;2.80;;
51612;SDS011;37694;51.748;14.326;2023-05-27T14:23:21;4.80;;;2.90;;
51612;SDS011;37694;51.748;14.326;2023-05-27T14:25:46;4.60;;;2.60;;
51612;SDS011;37694;51.748;14.326;2023-05-27T14:28:12;7.32;;;3.08;;
51612;SDS011;37694;51.748;14.326;2023-05-27T14:30:38;5.78;;;2.85;;
51612;SDS011;37694;51.748;14.326;2023-05-27T14:33:04;6.45;;;2.60;;
51612;SDS011;37694;51.748;14.326;2023-05-27T14:35:34;5.13;;;3.03;;